createdAt,value
2017-09-04T00:00:20.602Z,10.93
2017-09-04T00:01:21.289Z,10.89
2017-09-04T00:02:22.229Z,10.92
2017-09-04T00:03:22.915Z,10.87
2017-09-04T00:04:23.613Z,10.84
2017-09-04T00:05:24.308Z,10.76
2017-09-04T00:06:24.997Z,10.75
2017-09-04T00:07:25.939Z,10.74
2017-09-04T00:08:26.631Z,10.71
2017-09-04T00:09:27.325Z,10.75
2017-09-04T00:10:28.018Z,10.63
2017-09-04T00:11:28.706Z,10.68
2017-09-04T00:12:29.401Z,10.75
2017-09-04T00:13:30.089Z,10.82
2017-09-04T00:14:30.777Z,10.75
2017-09-04T00:15:31.463Z,10.71
2017-09-04T00:16:32.154Z,10.64
2017-09-04T00:17:33.091Z,10.76
2017-09-04T00:18:33.780Z,10.74
2017-09-04T00:19:34.472Z,10.79
2017-09-04T00:20:35.158Z,10.72
2017-09-04T00:21:35.855Z,10.69
2017-09-04T00:22:36.792Z,10.75
2017-09-04T00:23:37.477Z,10.71
2017-09-04T00:24:38.164Z,10.63
2017-09-04T00:25:38.850Z,10.57
2017-09-04T00:26:39.552Z,10.67
2017-09-04T00:27:40.588Z,10.67
2017-09-04T00:28:41.276Z,10.60
2017-09-04T00:29:41.963Z,10.61
2017-09-04T00:30:42.653Z,10.67
2017-09-04T00:31:43.344Z,10.54
2017-09-04T00:32:44.286Z,10.60
2017-09-04T00:33:44.984Z,10.68
2017-09-04T00:34:45.671Z,10.64
2017-09-04T00:35:46.354Z,10.59
2017-09-04T00:36:47.044Z,10.53
2017-09-04T00:37:48.035Z,10.49
2017-09-04T00:38:48.729Z,10.42
2017-09-04T00:39:49.414Z,10.53
2017-09-04T00:40:50.109Z,10.53
2017-09-04T00:41:50.797Z,10.56
2017-09-04T00:42:51.738Z,10.48
2017-09-04T00:43:52.424Z,10.37
2017-09-04T00:44:53.111Z,10.33
2017-09-04T00:45:53.800Z,10.25
2017-09-04T00:46:54.500Z,10.22
2017-09-04T00:47:55.428Z,10.33
2017-09-04T00:48:56.114Z,10.30
2017-09-04T00:49:56.807Z,10.25
2017-09-04T00:50:57.494Z,10.20
2017-09-04T00:51:58.180Z,10.28
2017-09-04T00:52:59.420Z,10.35
2017-09-04T00:54:00.115Z,10.30
2017-09-04T00:55:00.805Z,10.19
2017-09-04T00:56:01.492Z,10.22
2017-09-04T00:57:02.184Z,10.35
2017-09-04T00:58:03.122Z,10.23
2017-09-04T00:59:03.812Z,10.16
2017-09-04T01:00:04.511Z,10.15
2017-09-04T01:01:05.197Z,10.16
2017-09-04T01:02:05.882Z,10.13
2017-09-04T01:03:06.822Z,10.19
2017-09-04T01:04:07.513Z,10.10
2017-09-04T01:05:08.206Z,10.12
2017-09-04T01:06:08.906Z,10.13
2017-09-04T01:07:09.591Z,10.20
2017-09-04T01:08:10.526Z,10.05
2017-09-04T01:09:11.212Z,9.98
2017-09-04T01:10:11.897Z,10.02
2017-09-04T01:11:12.593Z,10.12
2017-09-04T01:12:13.278Z,10.07
2017-09-04T01:13:14.221Z,9.94
2017-09-04T01:14:14.905Z,9.98
2017-09-04T01:15:15.587Z,9.98
2017-09-04T01:16:16.276Z,9.97
2017-09-04T01:17:16.966Z,9.99
2017-09-04T01:18:17.653Z,9.86
2017-09-04T01:19:18.346Z,9.84
2017-09-04T01:20:19.038Z,9.87
2017-09-04T01:21:19.726Z,9.87
2017-09-04T01:22:20.419Z,9.84
2017-09-04T01:23:21.362Z,9.86
2017-09-04T01:24:22.049Z,9.79
2017-09-04T01:25:22.731Z,9.77
2017-09-04T01:26:23.423Z,9.74
2017-09-04T01:27:24.116Z,9.79
2017-09-04T01:28:25.040Z,9.84
2017-09-04T01:29:25.735Z,9.72
2017-09-04T01:30:26.420Z,9.83
2017-09-04T01:31:27.105Z,9.87
2017-09-04T01:32:27.795Z,9.76
2017-09-04T01:33:28.730Z,9.83
2017-09-04T01:34:29.416Z,9.69
2017-09-04T01:35:30.101Z,9.86
2017-09-04T01:36:30.786Z,9.84
2017-09-04T01:37:31.484Z,9.83
2017-09-04T01:38:32.420Z,9.82
2017-09-04T01:39:33.108Z,9.84
2017-09-04T01:40:33.793Z,9.89
2017-09-04T01:41:34.486Z,9.87
2017-09-04T01:42:35.168Z,9.92
2017-09-04T01:43:36.105Z,9.97
2017-09-04T01:44:36.792Z,10.02
2017-09-04T01:45:37.481Z,10.01
2017-09-04T01:46:38.172Z,9.97
2017-09-04T01:47:38.862Z,9.99
2017-09-04T01:48:39.800Z,10.02
2017-09-04T01:49:40.493Z,10.01
2017-09-04T01:50:41.183Z,10.05
2017-09-04T01:51:41.870Z,10.12
2017-09-04T01:52:42.556Z,10.22
2017-09-04T01:53:43.495Z,10.17
2017-09-04T01:54:44.181Z,10.23
2017-09-04T01:55:44.868Z,10.34
2017-09-04T01:56:45.560Z,10.34
2017-09-04T01:57:46.244Z,10.26
2017-09-04T01:58:46.981Z,10.42
2017-09-04T01:59:47.669Z,10.41
2017-09-04T02:00:48.357Z,10.41
2017-09-04T02:01:49.042Z,10.38
2017-09-04T02:02:49.727Z,10.49
2017-09-04T02:03:50.663Z,10.44
2017-09-04T02:04:51.351Z,10.46
2017-09-04T02:05:52.038Z,10.40
2017-09-04T02:06:52.725Z,10.41
2017-09-04T02:07:53.410Z,10.48
2017-09-04T02:08:54.353Z,10.41
2017-09-04T02:09:55.041Z,10.42
2017-09-04T02:10:55.728Z,10.42
2017-09-04T02:11:56.418Z,10.44
2017-09-04T02:12:57.108Z,10.42
2017-09-04T02:13:58.045Z,10.40
2017-09-04T02:14:58.731Z,10.53
2017-09-04T02:15:59.415Z,10.42
2017-09-04T02:17:00.097Z,10.28
2017-09-04T02:18:00.783Z,10.28
2017-09-04T02:19:01.725Z,10.31
2017-09-04T02:20:02.414Z,10.28
2017-09-04T02:21:03.099Z,10.15
2017-09-04T02:22:03.786Z,10.19
2017-09-04T02:23:04.472Z,10.25
2017-09-04T02:24:05.411Z,10.12
2017-09-04T02:25:06.099Z,10.16
2017-09-04T02:26:06.785Z,10.20
2017-09-04T02:27:07.473Z,10.16
2017-09-04T02:28:08.158Z,10.16
2017-09-04T02:29:08.846Z,10.16
2017-09-04T02:30:09.534Z,10.17
2017-09-04T02:31:10.217Z,10.15
2017-09-04T02:32:10.905Z,10.19
2017-09-04T02:33:11.594Z,10.17
2017-09-04T02:34:12.533Z,10.22
2017-09-04T02:35:13.217Z,10.19
2017-09-04T02:36:13.919Z,10.25
2017-09-04T02:37:14.613Z,10.23
2017-09-04T02:38:15.286Z,10.33
2017-09-04T02:39:16.232Z,10.30
2017-09-04T02:40:16.920Z,10.17
2017-09-04T02:41:17.614Z,10.31
2017-09-04T02:42:18.318Z,10.15
2017-09-04T02:43:19.008Z,10.22
2017-09-04T02:44:19.955Z,10.25
2017-09-04T02:45:20.632Z,10.16
2017-09-04T02:46:21.336Z,10.34
2017-09-04T02:47:22.025Z,10.33
2017-09-04T02:48:22.712Z,10.34
2017-09-04T02:49:23.659Z,10.28
2017-09-04T02:50:24.350Z,10.35
2017-09-04T02:51:25.037Z,10.34
2017-09-04T02:52:25.723Z,10.41
2017-09-04T02:53:26.409Z,10.40
2017-09-04T02:54:27.097Z,10.38
2017-09-04T02:55:27.789Z,10.41
2017-09-04T02:56:28.478Z,10.38
2017-09-04T02:57:29.163Z,10.40
2017-09-04T02:58:29.857Z,10.37
2017-09-04T02:59:30.798Z,10.35
2017-09-04T03:00:31.500Z,10.40
2017-09-04T03:01:32.181Z,10.46
2017-09-04T03:02:32.864Z,10.44
2017-09-04T03:03:33.554Z,10.42
2017-09-04T03:04:34.484Z,10.42
2017-09-04T03:05:35.178Z,10.44
2017-09-04T03:06:35.865Z,10.35
2017-09-04T03:07:36.552Z,10.37
2017-09-04T03:08:37.238Z,10.46
2017-09-04T03:09:38.175Z,10.42
2017-09-04T03:10:38.862Z,10.40
2017-09-04T03:11:39.562Z,10.40
2017-09-04T03:12:40.252Z,10.40
2017-09-04T03:13:40.939Z,10.35
2017-09-04T03:14:41.878Z,10.26
2017-09-04T03:15:42.567Z,10.31
2017-09-04T03:16:43.250Z,10.41
2017-09-04T03:17:43.938Z,10.41
2017-09-04T03:18:44.623Z,10.42
2017-09-04T03:19:45.612Z,10.54
2017-09-04T03:20:46.307Z,10.56
2017-09-04T03:21:46.993Z,10.61
2017-09-04T03:22:47.681Z,10.61
2017-09-04T03:23:48.374Z,10.63
2017-09-04T03:24:49.064Z,10.60
2017-09-04T03:25:49.792Z,10.68
2017-09-04T03:26:50.448Z,10.60
2017-09-04T03:27:51.141Z,10.72
2017-09-04T03:28:51.836Z,10.69
2017-09-04T03:29:52.780Z,10.72
2017-09-04T03:30:53.468Z,10.72
2017-09-04T03:31:54.157Z,10.67
2017-09-04T03:32:54.850Z,10.60
2017-09-04T03:33:55.542Z,10.68
2017-09-04T03:34:56.234Z,10.54
2017-09-04T03:35:56.925Z,10.71
2017-09-04T03:36:57.617Z,10.67
2017-09-04T03:37:58.310Z,10.61
2017-09-04T03:38:59.002Z,10.69
2017-09-04T03:39:59.939Z,10.67
2017-09-04T03:41:00.625Z,10.68
2017-09-04T03:42:01.311Z,10.57
2017-09-04T03:43:01.998Z,10.54
2017-09-04T03:44:02.687Z,10.64
2017-09-04T03:45:03.622Z,10.67
2017-09-04T03:46:04.314Z,10.59
2017-09-04T03:47:04.999Z,10.64
2017-09-04T03:48:05.686Z,10.57
2017-09-04T03:49:06.373Z,10.56
2017-09-04T03:50:07.311Z,10.56
2017-09-04T03:51:07.997Z,10.57
2017-09-04T03:52:08.688Z,10.56
2017-09-04T03:53:09.376Z,10.64
2017-09-04T03:54:10.061Z,10.63
2017-09-04T03:55:11.009Z,10.54
2017-09-04T03:56:11.700Z,10.67
2017-09-04T03:57:12.389Z,10.63
2017-09-04T03:58:13.076Z,10.69
2017-09-04T03:59:13.768Z,10.60
2017-09-04T04:00:14.709Z,10.68
2017-09-04T04:01:15.399Z,10.69
2017-09-04T04:02:16.084Z,10.82
2017-09-04T04:03:16.770Z,10.74
2017-09-04T04:04:17.461Z,10.71
2017-09-04T04:05:18.399Z,10.74
2017-09-04T04:06:19.089Z,10.74
2017-09-04T04:07:19.779Z,10.76
2017-09-04T04:08:20.464Z,10.78
2017-09-04T04:09:21.156Z,10.75
2017-09-04T04:10:22.092Z,10.75
2017-09-04T04:11:22.785Z,10.82
2017-09-04T04:12:23.471Z,10.79
2017-09-04T04:13:24.161Z,10.79
2017-09-04T04:14:24.847Z,10.79
2017-09-04T04:15:25.787Z,10.82
2017-09-04T04:16:26.475Z,10.84
2017-09-04T04:17:27.171Z,10.86
2017-09-04T04:18:27.858Z,10.86
2017-09-04T04:19:28.549Z,10.84
2017-09-04T04:20:29.481Z,10.86
2017-09-04T04:21:30.177Z,10.84
2017-09-04T04:22:30.871Z,10.87
2017-09-04T04:23:31.559Z,10.79
2017-09-04T04:24:32.245Z,10.82
2017-09-04T04:25:32.933Z,10.89
2017-09-04T04:26:33.624Z,10.82
2017-09-04T04:27:34.313Z,10.82
2017-09-04T04:28:35.010Z,10.76
2017-09-04T04:29:35.694Z,10.82
2017-09-04T04:30:36.633Z,10.75
2017-09-04T04:31:37.320Z,10.74
2017-09-04T04:32:38.014Z,10.71
2017-09-04T04:33:38.699Z,10.74
2017-09-04T04:34:39.391Z,10.71
2017-09-04T04:35:40.333Z,10.71
2017-09-04T04:36:41.028Z,10.67
2017-09-04T04:37:41.712Z,10.67
2017-09-04T04:38:42.408Z,10.68
2017-09-04T04:39:43.097Z,10.78
2017-09-04T04:40:43.785Z,10.75
2017-09-04T04:41:44.475Z,10.78
2017-09-04T04:42:45.163Z,10.78
2017-09-04T04:43:45.852Z,10.89
2017-09-04T04:44:46.538Z,10.87
2017-09-04T04:45:47.482Z,10.92
2017-09-04T04:46:48.171Z,10.99
2017-09-04T04:47:48.859Z,10.90
2017-09-04T04:48:49.555Z,10.96
2017-09-04T04:49:50.245Z,10.92
2017-09-04T04:50:51.181Z,10.93
2017-09-04T04:51:51.872Z,10.97
2017-09-04T04:52:52.562Z,10.92
2017-09-04T04:53:53.250Z,10.99
2017-09-04T04:54:53.944Z,11.08
2017-09-04T04:55:54.635Z,10.99
2017-09-04T04:56:55.327Z,10.97
2017-09-04T04:57:56.024Z,11.00
2017-09-04T04:58:56.717Z,10.99
2017-09-04T04:59:57.408Z,10.99
2017-09-04T05:00:58.098Z,11.00
2017-09-04T05:01:58.789Z,11.07
2017-09-04T05:02:59.484Z,11.05
2017-09-04T05:04:00.174Z,11.11
2017-09-04T05:05:00.864Z,11.10
2017-09-04T05:06:01.805Z,11.14
2017-09-04T05:07:02.492Z,11.17
2017-09-04T05:08:03.180Z,11.11
2017-09-04T05:09:03.871Z,11.08
2017-09-04T05:10:04.564Z,10.97
2017-09-04T05:11:05.505Z,11.07
2017-09-04T05:12:06.196Z,11.04
2017-09-04T05:13:06.894Z,11.11
2017-09-04T05:14:07.585Z,11.02
2017-09-04T05:15:08.282Z,11.07
2017-09-04T05:16:09.227Z,10.87
2017-09-04T05:17:09.921Z,10.76
2017-09-04T05:18:10.612Z,10.87
2017-09-04T05:19:11.299Z,10.90
2017-09-04T05:20:11.991Z,10.93
2017-09-04T05:21:12.932Z,10.99
2017-09-04T05:22:13.624Z,11.02
2017-09-04T05:23:14.317Z,11.07
2017-09-04T05:24:15.010Z,11.04
2017-09-04T05:25:15.700Z,10.99
2017-09-04T05:26:16.643Z,11.10
2017-09-04T05:27:17.333Z,11.04
2017-09-04T05:28:18.028Z,11.12
2017-09-04T05:29:18.719Z,11.17
2017-09-04T05:30:19.411Z,11.17
2017-09-04T05:31:20.352Z,11.11
2017-09-04T05:32:21.043Z,11.12
2017-09-04T05:33:21.735Z,11.11
2017-09-04T05:34:22.427Z,11.18
2017-09-04T05:35:23.121Z,11.11
2017-09-04T05:36:24.069Z,11.23
2017-09-04T05:37:24.768Z,11.14
2017-09-04T05:38:25.458Z,11.22
2017-09-04T05:39:26.149Z,11.12
2017-09-04T05:40:26.847Z,11.19
2017-09-04T05:41:27.793Z,11.15
2017-09-04T05:42:28.482Z,11.14
2017-09-04T05:43:29.189Z,11.23
2017-09-04T05:44:29.879Z,11.19
2017-09-04T05:45:30.571Z,11.29
2017-09-04T05:46:31.511Z,11.23
2017-09-04T05:47:32.203Z,11.29
2017-09-04T05:48:32.894Z,11.37
2017-09-04T05:49:33.586Z,11.29
2017-09-04T05:50:34.281Z,11.30
2017-09-04T05:51:35.221Z,11.35
2017-09-04T05:52:35.914Z,11.27
2017-09-04T05:53:36.606Z,11.47
2017-09-04T05:54:37.296Z,11.44
2017-09-04T05:55:37.987Z,11.27
2017-09-04T05:56:38.935Z,11.29
2017-09-04T05:57:39.634Z,11.25
2017-09-04T05:58:40.323Z,11.14
2017-09-04T05:59:41.010Z,11.17
2017-09-04T06:00:41.703Z,11.30
2017-09-04T06:01:42.646Z,11.26
2017-09-04T06:02:43.341Z,11.29
2017-09-04T06:03:44.032Z,11.35
2017-09-04T06:04:44.725Z,11.37
2017-09-04T06:05:45.417Z,11.40
2017-09-04T06:06:46.358Z,11.44
2017-09-04T06:07:47.047Z,11.44
2017-09-04T06:08:47.738Z,11.48
2017-09-04T06:09:48.430Z,11.45
2017-09-04T06:10:49.117Z,11.57
2017-09-04T06:11:50.110Z,11.54
2017-09-04T06:12:50.803Z,11.45
2017-09-04T06:13:51.496Z,11.45
2017-09-04T06:14:52.195Z,11.45
2017-09-04T06:15:52.897Z,11.50
2017-09-04T06:16:53.844Z,11.52
2017-09-04T06:17:54.531Z,11.63
2017-09-04T06:18:55.221Z,11.63
2017-09-04T06:19:55.908Z,11.65
2017-09-04T06:20:56.594Z,11.70
2017-09-04T06:21:57.536Z,11.69
2017-09-04T06:22:58.228Z,11.78
2017-09-04T06:23:58.925Z,11.88
2017-09-04T06:24:59.616Z,11.88
2017-09-04T06:26:00.309Z,11.87
2017-09-04T06:27:01.002Z,11.90
2017-09-04T06:28:01.691Z,11.91
2017-09-04T06:29:02.380Z,12.00
2017-09-04T06:30:03.073Z,12.02
2017-09-04T06:31:03.775Z,12.03
2017-09-04T06:32:04.716Z,12.02
2017-09-04T06:33:05.417Z,12.06
2017-09-04T06:34:06.104Z,12.02
2017-09-04T06:35:06.803Z,12.10
2017-09-04T06:36:07.493Z,12.02
2017-09-04T06:37:08.439Z,12.09
2017-09-04T06:38:09.137Z,12.04
2017-09-04T06:39:09.829Z,12.12
2017-09-04T06:40:10.522Z,12.04
2017-09-04T06:41:11.213Z,12.15
2017-09-04T06:42:12.157Z,12.12
2017-09-04T06:43:12.850Z,12.21
2017-09-04T06:44:13.548Z,12.28
2017-09-04T06:45:14.242Z,12.35
2017-09-04T06:46:14.928Z,12.35
2017-09-04T06:47:15.869Z,12.24
2017-09-04T06:48:16.561Z,12.28
2017-09-04T06:49:17.253Z,12.31
2017-09-04T06:50:17.942Z,12.45
2017-09-04T06:51:18.643Z,12.40
2017-09-04T06:52:19.584Z,12.28
2017-09-04T06:53:20.276Z,12.40
2017-09-04T06:54:20.967Z,12.57
2017-09-04T06:55:21.662Z,12.57
2017-09-04T06:56:22.353Z,12.54
2017-09-04T06:57:23.295Z,12.47
2017-09-04T06:58:23.989Z,12.55
2017-09-04T06:59:24.680Z,12.61
2017-09-04T07:00:25.380Z,12.60
2017-09-04T07:01:26.074Z,12.67
2017-09-04T07:02:27.023Z,12.65
2017-09-04T07:03:27.716Z,12.67
2017-09-04T07:04:28.409Z,12.67
2017-09-04T07:05:29.098Z,12.70
2017-09-04T07:06:29.791Z,12.79
2017-09-04T07:07:30.734Z,12.82
2017-09-04T07:08:31.428Z,12.72
2017-09-04T07:09:32.127Z,12.68
2017-09-04T07:10:32.817Z,12.79
2017-09-04T07:11:33.510Z,12.90
2017-09-04T07:12:34.461Z,12.91
2017-09-04T07:13:35.154Z,13.01
2017-09-04T07:14:35.850Z,13.11
2017-09-04T07:15:36.546Z,13.18
2017-09-04T07:16:37.243Z,13.04
2017-09-04T07:17:38.184Z,13.13
2017-09-04T07:18:38.874Z,13.20
2017-09-04T07:19:39.564Z,13.16
2017-09-04T07:20:40.259Z,13.15
2017-09-04T07:21:40.955Z,13.35
2017-09-04T07:22:41.654Z,13.23
2017-09-04T07:23:42.346Z,13.23
2017-09-04T07:24:43.043Z,13.20
2017-09-04T07:25:43.731Z,13.27
2017-09-04T07:26:44.429Z,13.28
2017-09-04T07:27:45.372Z,13.27
2017-09-04T07:28:46.061Z,13.31
2017-09-04T07:29:46.762Z,13.27
2017-09-04T07:30:47.455Z,13.12
2017-09-04T07:31:48.150Z,13.15
2017-09-04T07:32:49.091Z,13.25
2017-09-04T07:33:49.787Z,13.13
2017-09-04T07:34:50.480Z,13.13
2017-09-04T07:35:51.175Z,13.19
2017-09-04T07:36:51.867Z,13.22
2017-09-04T07:37:52.808Z,13.33
2017-09-04T07:38:53.500Z,13.28
2017-09-04T07:39:54.196Z,13.33
2017-09-04T07:40:54.851Z,13.33
2017-09-04T07:41:55.578Z,13.28
2017-09-04T07:42:56.524Z,13.35
2017-09-04T07:43:57.220Z,13.41
2017-09-04T07:44:57.914Z,13.18
2017-09-04T07:45:58.606Z,13.23
2017-09-04T07:46:59.299Z,13.23
2017-09-04T07:48:00.251Z,13.23
2017-09-04T07:49:00.944Z,13.27
2017-09-04T07:50:01.640Z,13.41
2017-09-04T07:51:02.334Z,13.42
2017-09-04T07:52:03.024Z,13.28
2017-09-04T07:53:03.969Z,13.27
2017-09-04T07:54:04.662Z,13.31
2017-09-04T07:55:05.351Z,13.44
2017-09-04T07:56:06.049Z,13.53
2017-09-04T07:57:06.743Z,13.53
2017-09-04T07:58:07.435Z,13.56
2017-09-04T07:59:08.138Z,13.68
2017-09-04T08:00:08.830Z,13.67
2017-09-04T08:01:09.527Z,13.74
2017-09-04T08:02:10.225Z,13.79
2017-09-04T08:03:11.170Z,13.79
2017-09-04T08:04:11.866Z,13.78
2017-09-04T08:05:12.561Z,13.87
2017-09-04T08:06:13.257Z,13.96
2017-09-04T08:07:13.955Z,13.89
2017-09-04T08:08:14.897Z,13.89
2017-09-04T08:09:15.591Z,13.87
2017-09-04T08:10:16.284Z,13.89
2017-09-04T08:11:16.978Z,14.04
2017-09-04T08:12:17.671Z,14.00
2017-09-04T08:13:18.636Z,14.05
2017-09-04T08:14:19.328Z,14.03
2017-09-04T08:15:20.022Z,14.00
2017-09-04T08:16:20.720Z,14.00
2017-09-04T08:17:21.414Z,14.11
2017-09-04T08:18:22.363Z,14.11
2017-09-04T08:19:23.059Z,14.32
2017-09-04T08:20:23.751Z,14.29
2017-09-04T08:21:24.444Z,14.41
2017-09-04T08:22:25.135Z,14.41
2017-09-04T08:23:26.079Z,14.54
2017-09-04T08:24:26.775Z,14.72
2017-09-04T08:25:27.468Z,14.69
2017-09-04T08:26:28.158Z,14.94
2017-09-04T08:27:28.852Z,15.07
2017-09-04T08:28:29.800Z,15.00
2017-09-04T08:29:30.486Z,15.09
2017-09-04T08:30:31.174Z,15.19
2017-09-04T08:31:31.870Z,15.04
2017-09-04T08:32:32.564Z,14.91
2017-09-04T08:33:33.506Z,14.99
2017-09-04T08:34:34.205Z,15.03
2017-09-04T08:35:34.898Z,15.04
2017-09-04T08:36:35.588Z,15.22
2017-09-04T08:37:36.297Z,15.22
2017-09-04T08:38:37.248Z,15.24
2017-09-04T08:39:37.928Z,15.28
2017-09-04T08:40:38.639Z,15.36
2017-09-04T08:41:39.332Z,15.55
2017-09-04T08:42:40.026Z,15.57
2017-09-04T08:43:40.986Z,15.54
2017-09-04T08:44:41.677Z,15.40
2017-09-04T08:45:42.367Z,15.36
2017-09-04T08:46:43.066Z,15.46
2017-09-04T08:47:43.768Z,15.39
2017-09-04T08:48:44.714Z,15.40
2017-09-04T08:49:45.407Z,15.39
2017-09-04T08:50:46.112Z,15.19
2017-09-04T08:51:46.808Z,15.33
2017-09-04T08:52:47.506Z,15.21
2017-09-04T08:53:48.194Z,15.35
2017-09-04T08:54:48.891Z,15.51
2017-09-04T08:55:49.591Z,15.47
2017-09-04T08:56:50.289Z,15.49
2017-09-04T08:57:50.982Z,15.54
2017-09-04T08:58:51.934Z,15.54
2017-09-04T08:59:52.626Z,15.55
2017-09-04T09:00:53.329Z,15.37
2017-09-04T09:01:54.024Z,15.36
2017-09-04T09:02:54.718Z,15.33
2017-09-04T09:03:55.663Z,15.37
2017-09-04T09:04:56.359Z,15.39
2017-09-04T09:05:57.054Z,15.11
2017-09-04T09:06:57.755Z,15.10
2017-09-04T09:07:58.450Z,15.10
2017-09-04T09:08:59.393Z,15.24
2017-09-04T09:10:00.083Z,15.06
2017-09-04T09:11:00.783Z,15.09
2017-09-04T09:12:01.473Z,15.25
2017-09-04T09:13:02.171Z,15.19
2017-09-04T09:14:03.116Z,15.27
2017-09-04T09:15:03.810Z,15.25
2017-09-04T09:16:04.505Z,15.19
2017-09-04T09:17:05.198Z,15.25
2017-09-04T09:18:05.893Z,15.24
2017-09-04T09:19:06.836Z,15.24
2017-09-04T09:20:07.528Z,15.24
2017-09-04T09:21:08.227Z,15.22
2017-09-04T09:22:08.929Z,15.28
2017-09-04T09:23:09.627Z,15.36
2017-09-04T09:24:10.564Z,15.43
2017-09-04T09:25:11.291Z,15.55
2017-09-04T09:26:11.986Z,15.57
2017-09-04T09:27:12.683Z,15.65
2017-09-04T09:28:13.377Z,15.72
2017-09-04T09:29:14.070Z,15.67
2017-09-04T09:30:14.769Z,15.73
2017-09-04T09:31:15.465Z,15.76
2017-09-04T09:32:16.155Z,15.70
2017-09-04T09:33:16.856Z,15.77
2017-09-04T09:34:17.796Z,15.75
2017-09-04T09:35:18.500Z,15.73
2017-09-04T09:36:19.198Z,15.77
2017-09-04T09:37:19.902Z,15.83
2017-09-04T09:38:20.602Z,15.97
2017-09-04T09:39:21.553Z,15.92
2017-09-04T09:40:22.242Z,15.91
2017-09-04T09:41:22.938Z,16.04
2017-09-04T09:42:23.635Z,16.04
2017-09-04T09:43:24.329Z,15.91
2017-09-04T09:44:25.275Z,15.91
2017-09-04T09:45:25.973Z,15.98
2017-09-04T09:46:26.667Z,16.02
2017-09-04T09:47:27.367Z,16.15
2017-09-04T09:48:28.062Z,16.23
2017-09-04T09:49:29.006Z,16.29
2017-09-04T09:50:29.700Z,16.38
2017-09-04T09:51:30.396Z,16.33
2017-09-04T09:52:31.093Z,16.33
2017-09-04T09:53:31.785Z,16.49
2017-09-04T09:54:32.731Z,16.53
2017-09-04T09:55:33.424Z,16.84
2017-09-04T09:56:34.118Z,16.81
2017-09-04T09:57:34.818Z,16.93
2017-09-04T09:58:35.513Z,16.96
2017-09-04T09:59:36.463Z,16.97
2017-09-04T10:00:37.157Z,17.06
2017-09-04T10:01:37.856Z,17.09
2017-09-04T10:02:38.552Z,17.02
2017-09-04T10:03:39.245Z,17.01
2017-09-04T10:04:40.204Z,17.01
2017-09-04T10:05:40.883Z,17.12
2017-09-04T10:06:41.579Z,17.19
2017-09-04T10:07:42.271Z,17.27
2017-09-04T10:08:42.963Z,17.29
2017-09-04T10:09:43.911Z,17.41
2017-09-04T10:10:44.608Z,17.49
2017-09-04T10:11:45.315Z,17.57
2017-09-04T10:12:46.018Z,17.72
2017-09-04T10:13:46.712Z,17.82
2017-09-04T10:14:47.438Z,17.95
2017-09-04T10:15:48.102Z,17.98
2017-09-04T10:16:48.793Z,17.92
2017-09-04T10:17:49.485Z,17.98
2017-09-04T10:18:50.179Z,17.87
2017-09-04T10:19:51.124Z,17.94
2017-09-04T10:20:51.822Z,18.13
2017-09-04T10:21:52.519Z,18.07
2017-09-04T10:22:53.213Z,18.16
2017-09-04T10:23:53.910Z,18.25
2017-09-04T10:24:54.854Z,18.23
2017-09-04T10:25:55.551Z,18.26
2017-09-04T10:26:56.251Z,18.34
2017-09-04T10:27:56.945Z,18.50
2017-09-04T10:28:57.661Z,18.45
2017-09-04T10:29:58.596Z,18.53
2017-09-04T10:30:59.292Z,18.62
2017-09-04T10:32:00.006Z,18.63
2017-09-04T10:33:00.930Z,18.59
2017-09-04T10:34:01.628Z,18.50
2017-09-04T10:35:02.574Z,18.41
2017-09-04T10:36:03.276Z,18.52
2017-09-04T10:37:03.980Z,18.60
2017-09-04T10:38:04.675Z,18.60
2017-09-04T10:39:05.369Z,18.59
2017-09-04T10:40:06.311Z,18.40
2017-09-04T10:41:07.017Z,18.37
2017-09-04T10:42:07.713Z,18.29
2017-09-04T10:43:08.407Z,18.35
2017-09-04T10:44:09.104Z,18.35
2017-09-04T10:45:10.049Z,18.56
2017-09-04T10:46:10.751Z,18.63
2017-09-04T10:47:11.449Z,18.70
2017-09-04T10:48:12.145Z,18.78
2017-09-04T10:49:12.839Z,18.88
2017-09-04T10:50:13.786Z,18.84
2017-09-04T10:51:14.480Z,19.00
2017-09-04T10:52:15.184Z,18.99
2017-09-04T10:53:15.873Z,19.00
2017-09-04T10:54:16.569Z,19.12
2017-09-04T10:55:17.516Z,19.19
2017-09-04T10:56:18.219Z,19.22
2017-09-04T10:57:18.926Z,19.27
2017-09-04T10:58:19.619Z,19.22
2017-09-04T10:59:20.318Z,19.29
2017-09-04T11:00:21.013Z,19.27
2017-09-04T11:01:21.727Z,19.30
2017-09-04T11:02:22.421Z,19.02
2017-09-04T11:03:23.116Z,18.99
2017-09-04T11:04:23.817Z,18.88
2017-09-04T11:05:24.765Z,18.83
2017-09-04T11:06:25.487Z,18.86
2017-09-04T11:07:26.170Z,18.86
2017-09-04T11:08:26.869Z,18.90
2017-09-04T11:09:27.564Z,19.04
2017-09-04T11:10:28.514Z,19.27
2017-09-04T11:11:29.208Z,19.44
2017-09-04T11:12:29.922Z,19.39
2017-09-04T11:13:30.603Z,19.48
2017-09-04T11:14:31.294Z,19.59
2017-09-04T11:15:32.242Z,19.48
2017-09-04T11:16:32.939Z,19.58
2017-09-04T11:17:33.632Z,19.71
2017-09-04T11:18:34.328Z,19.71
2017-09-04T11:19:35.027Z,19.63
2017-09-04T11:20:35.971Z,19.54
2017-09-04T11:21:36.669Z,19.48
2017-09-04T11:22:37.363Z,19.55
2017-09-04T11:23:38.060Z,19.66
2017-09-04T11:24:38.755Z,19.77
2017-09-04T11:25:39.702Z,19.84
2017-09-04T11:26:40.396Z,19.84
2017-09-04T11:27:41.089Z,20.00
2017-09-04T11:28:41.789Z,20.28
2017-09-04T11:29:42.483Z,20.58
2017-09-04T11:30:43.442Z,20.97
2017-09-04T11:31:44.136Z,21.42
2017-09-04T11:32:44.836Z,22.51
2017-09-04T11:33:45.547Z,23.73
2017-09-04T11:34:46.245Z,25.23
2017-09-04T11:35:47.199Z,26.97
2017-09-04T11:36:47.904Z,28.62
2017-09-04T11:37:48.607Z,29.42
2017-09-04T11:38:49.303Z,30.85
2017-09-04T11:39:49.999Z,31.76
2017-09-04T11:40:50.946Z,32.18
2017-09-04T11:41:51.647Z,33.14
2017-09-04T11:42:52.348Z,33.99
2017-09-04T11:43:53.045Z,34.73
2017-09-04T11:44:53.752Z,35.27
2017-09-04T11:45:54.705Z,36.16
2017-09-04T11:46:55.412Z,36.65
2017-09-04T11:47:56.114Z,37.35
2017-09-04T11:48:56.817Z,37.40
2017-09-04T11:49:57.519Z,37.99
2017-09-04T11:50:58.471Z,37.06
2017-09-04T11:51:59.181Z,37.13
2017-09-04T11:52:59.886Z,37.39
2017-09-04T11:54:00.587Z,38.52
2017-09-04T11:55:01.291Z,37.99
2017-09-04T11:56:02.244Z,38.12
2017-09-04T11:57:02.948Z,38.83
2017-09-04T11:58:03.649Z,39.46
2017-09-04T11:59:04.352Z,39.71
2017-09-04T12:00:05.059Z,38.92
2017-09-04T12:01:06.017Z,39.24
2017-09-04T12:02:06.723Z,40.21
2017-09-04T12:03:07.426Z,40.92
2017-09-04T12:04:08.126Z,41.14
2017-09-04T12:05:08.842Z,40.58
2017-09-04T12:06:09.799Z,40.66
2017-09-04T12:07:10.504Z,40.00
2017-09-04T12:08:11.214Z,40.38
2017-09-04T12:09:11.918Z,39.85
2017-09-04T12:10:12.628Z,40.58
2017-09-04T12:11:13.588Z,40.75
2017-09-04T12:12:14.292Z,40.99
2017-09-04T12:13:14.996Z,40.97
2017-09-04T12:14:15.707Z,41.38
2017-09-04T12:15:16.425Z,40.97
2017-09-04T12:16:17.381Z,41.15
2017-09-04T12:17:18.089Z,41.72
2017-09-04T12:18:18.793Z,43.73
2017-09-04T12:19:19.501Z,45.41
2017-09-04T12:20:20.209Z,46.27
2017-09-04T12:21:21.170Z,47.64
2017-09-04T12:22:21.885Z,48.12
2017-09-04T12:23:22.593Z,48.37
2017-09-04T12:24:23.302Z,47.74
2017-09-04T12:25:24.010Z,47.86
2017-09-04T12:26:24.968Z,48.40
2017-09-04T12:27:25.673Z,46.32
2017-09-04T12:28:26.380Z,46.41
2017-09-04T12:29:27.086Z,46.17
2017-09-04T12:30:27.796Z,46.12
2017-09-04T12:31:28.514Z,46.10
2017-09-04T12:32:29.220Z,45.89
2017-09-04T12:33:29.936Z,46.17
2017-09-04T12:34:30.654Z,47.13
2017-09-04T12:35:31.362Z,46.34
2017-09-04T12:36:32.337Z,44.34
2017-09-04T12:37:33.053Z,43.95
2017-09-04T12:38:33.763Z,44.72
2017-09-04T12:39:34.476Z,44.56
2017-09-04T12:40:35.190Z,45.24
2017-09-04T12:41:36.146Z,44.87
2017-09-04T12:42:36.861Z,45.24
2017-09-04T12:43:37.570Z,45.44
2017-09-04T12:44:38.290Z,45.72
2017-09-04T12:45:38.997Z,46.64
2017-09-04T12:46:39.959Z,47.56
2017-09-04T12:47:40.674Z,47.84
2017-09-04T12:48:41.378Z,48.29
2017-09-04T12:49:42.091Z,47.41
2017-09-04T12:50:42.798Z,46.98
2017-09-04T12:51:43.757Z,46.85
2017-09-04T12:52:44.467Z,46.62
2017-09-04T12:53:45.175Z,46.79
2017-09-04T12:54:45.887Z,46.74
2017-09-04T12:55:46.600Z,46.13
2017-09-04T12:56:47.557Z,46.20
2017-09-04T12:57:48.270Z,46.73
2017-09-04T12:58:48.978Z,46.34
2017-09-04T12:59:49.682Z,47.58
2017-09-04T13:00:50.389Z,47.71
2017-09-04T13:01:51.350Z,47.08
2017-09-04T13:02:52.062Z,46.13